Time;durP1;ratioP1;P1;durP2;ratioP2;P2;SDS_P1;SDS_P2;PMS_P1;PMS_P2;Temp;Humidity;BMP_temperature;BMP_pressure;BME280_temperature;BME280_humidity;BME280_pressure;Samples;Min_cycle;Max_cycle;Signal;HPM_P1;HPM_P2
2022/08/24 00:01:11;;;;;;;0.35;0.32;;;;;;;17.76;85.80;93204.53;5089513;28;20032;-69
2022/08/24 00:03:38;;;;;;;0.35;0.35;;;;;;;17.80;86.00;93224.34;5090691;28;20119;-69
2022/08/24 00:06:06;;;;;;;1.00;1.00;;;;;;;17.73;87.36;93230.16;5089146;28;20443;-71
2022/08/24 00:08:32;;;;;;;0.57;0.57;;;;;;;17.84;86.50;93232.25;5090368;28;20488;-69
2022/08/24 00:10:58;;;;;;;0.30;0.30;;;;;;;17.85;86.50;93233.72;5090546;28;20031;-69
2022/08/24 00:13:25;;;;;;;0.80;0.80;;;;;;;17.84;86.20;93233.00;5090302;28;20516;-69
2022/08/24 00:15:51;;;;;;;0.30;0.30;;;;;;;17.72;87.37;93235.00;5090655;28;20412;-69
2022/08/24 00:18:17;;;;;;;0.82;0.82;;;;;;;17.65;88.32;93238.00;5099955;28;20080;-69
2022/08/24 00:20:43;;;;;;;0.20;0.20;;;;;;;17.70;88.29;93236.94;5110542;28;20435;-70
2022/08/24 00:23:08;;;;;;;2.28;2.15;;;;;;;17.65;87.38;93238.72;5110816;28;20393;-69
2022/08/24 00:25:34;;;;;;;0.40;0.40;;;;;;;17.61;87.23;93244.06;5110852;28;20024;-68
2022/08/24 00:28:00;;;;;;;0.47;0.45;;;;;;;17.57;87.65;93243.06;5110534;28;20472;-68
2022/08/24 00:30:26;;;;;;;0.50;0.50;;;;;;;17.59;87.37;93232.75;5110501;28;20484;-68
2022/08/24 00:32:53;;;;;;;0.35;0.35;;;;;;;17.65;86.62;93247.09;5114693;28;20038;-68
2022/08/24 00:35:19;;;;;;;0.20;0.20;;;;;;;17.67;86.36;93252.09;5114526;28;20036;-68
2022/08/24 00:37:45;;;;;;;0.52;0.52;;;;;;;17.59;86.39;93240.41;5114569;28;20024;-68
2022/08/24 00:40:24;;;;;;;1.85;1.75;;;;;;;17.58;85.80;93252.91;5114835;28;20029;-68
2022/08/24 00:42:50;;;;;;;0.20;0.20;;;;;;;17.63;85.72;93240.69;5114512;28;20088;-69
2022/08/24 00:45:17;;;;;;;0.68;0.68;;;;;;;17.59;85.69;93252.31;5114721;28;20038;-68
2022/08/24 00:47:49;;;;;;;0.10;0.10;;;;;;;17.35;86.46;93248.63;5112243;28;20504;-68
2022/08/24 00:50:22;;;;;;;0.40;0.30;;;;;;;17.54;85.70;93252.66;5093940;28;20024;-69
2022/08/24 00:53:15;;;;;;;0.40;0.40;;;;;;;17.55;85.01;93252.03;5092725;28;20066;-68
2022/08/24 00:55:51;;;;;;;1.77;1.67;;;;;;;17.60;84.92;93250.25;5088130;28;20169;-68
2022/08/24 00:58:27;;;;;;;0.65;0.65;;;;;;;17.38;86.12;93255.81;5094031;28;20028;-68
2022/08/24 01:00:58;;;;;;;0.80;0.50;;;;;;;17.36;86.06;93254.94;5092838;28;20020;-69
2022/08/24 01:03:26;;;;;;;0.30;0.30;;;;;;;17.32;85.31;93265.84;5093958;28;20413;-69
2022/08/24 01:05:52;;;;;;;0.10;0.10;;;;;;;17.33;83.88;93265.25;5093958;28;20156;-68
2022/08/24 01:08:19;;;;;;;19.27;1.15;;;;;;;17.29;84.19;93264.97;5093833;28;20524;-68
2022/08/24 01:10:57;;;;;;;0.20;0.20;;;;;;;17.12;83.71;93253.34;5093480;28;20039;-68
2022/08/24 01:13:24;;;;;;;0.25;0.25;;;;;;;17.19;84.55;93272.69;5092348;28;20023;-68
2022/08/24 01:15:52;;;;;;;0.40;0.40;;;;;;;17.12;84.74;93281.25;5093749;28;20468;-68
2022/08/24 01:21:15;;;;;;;0.10;0.10;;;;;;;17.01;84.88;93268.66;5112661;28;20045;-68
2022/08/24 01:23:56;;;;;;;0.20;0.20;;;;;;;17.08;86.41;93278.91;5112500;28;20031;-67
2022/08/24 01:26:27;;;;;;;0.50;0.50;;;;;;;17.11;85.26;93290.91;5112407;28;20496;-68
2022/08/24 01:28:55;;;;;;;0.52;0.52;;;;;;;17.13;84.95;93296.66;5113849;28;20114;-68
2022/08/24 01:31:22;;;;;;;0.35;0.35;;;;;;;17.06;84.43;93283.63;5113851;28;20026;-69
2022/08/24 01:33:50;;;;;;;0.82;0.82;;;;;;;17.15;84.53;93305.88;5113477;28;20247;-69
2022/08/24 01:36:18;;;;;;;0.20;0.20;;;;;;;17.13;85.13;93299.44;5113730;28;20389;-69
2022/08/24 01:38:44;;;;;;;0.13;0.13;;;;;;;17.03;85.64;93296.69;5113485;28;20201;-69
2022/08/24 01:41:10;;;;;;;0.20;0.20;;;;;;;17.08;86.50;93301.22;5111958;28;20031;-68
2022/08/24 01:43:36;;;;;;;0.20;0.20;;;;;;;17.08;86.63;93306.06;5112975;28;20023;-69
2022/08/24 01:46:01;;;;;;;0.45;0.45;;;;;;;17.00;86.98;93317.41;5113209;28;20035;-69
2022/08/24 01:48:27;;;;;;;0.35;0.35;;;;;;;17.04;85.56;93311.38;5113131;28;20480;-69
2022/08/24 01:50:52;;;;;;;0.38;0.38;;;;;;;16.98;86.54;93308.19;5113194;27;20045;-69
2022/08/24 01:53:19;;;;;;;6.32;4.68;;;;;;;16.83;86.41;93302.97;5113013;28;20023;-70
2022/08/24 01:55:45;;;;;;;0.88;0.45;;;;;;;16.86;86.39;93302.50;5113348;28;20476;-69
2022/08/24 01:58:11;;;;;;;0.65;0.65;;;;;;;16.92;85.91;93300.13;5113040;28;20084;-70
2022/08/24 02:00:37;;;;;;;0.90;0.85;;;;;;;16.96;85.98;93299.66;5113195;28;20027;-70
2022/08/24 02:03:02;;;;;;;39.88;2.70;;;;;;;16.95;85.86;93295.41;5113275;28;20050;-70
2022/08/24 02:05:28;;;;;;;0.50;0.50;;;;;;;17.01;85.25;93285.41;5112829;28;20066;-71
2022/08/24 02:07:56;;;;;;;1.15;1.10;;;;;;;17.04;85.85;93283.50;5112879;28;20019;-70
2022/08/24 02:10:22;;;;;;;0.10;0.10;;;;;;;17.06;85.38;93280.84;5112779;27;20152;-70
2022/08/24 02:12:57;;;;;;;0.63;0.63;;;;;;;16.99;86.60;93290.13;5112693;28;20114;-70
2022/08/24 02:15:38;;;;;;;0.68;0.68;;;;;;;16.95;86.88;93287.06;5113054;28;20457;-70
2022/08/24 02:18:06;;;;;;;0.20;0.20;;;;;;;16.87;87.50;93278.84;5107798;28;20472;-69
2022/08/24 02:20:32;;;;;;;0.20;0.20;;;;;;;16.87;87.69;93269.78;5114456;27;20066;-69
2022/08/24 02:22:58;;;;;;;1.17;0.85;;;;;;;16.85;87.75;93275.94;5111339;28;20035;-69
2022/08/24 02:25:26;;;;;;;0.30;0.30;;;;;;;16.84;87.98;93271.69;5112496;28;20099;-69
2022/08/24 02:27:51;;;;;;;0.50;0.50;;;;;;;16.76;86.92;93276.00;5112494;28;20055;-70
2022/08/24 02:30:17;;;;;;;0.10;0.10;;;;;;;16.65;87.76;93278.06;5112277;28;20106;-70
2022/08/24 02:32:43;;;;;;;0.20;0.20;;;;;;;16.77;86.90;93274.66;5112692;28;20038;-69
2022/08/24 02:35:09;;;;;;;0.10;0.10;;;;;;;16.73;87.30;93268.81;5112847;28;20053;-69
2022/08/24 02:37:35;;;;;;;0.30;0.30;;;;;;;16.62;87.83;93276.47;5112458;28;20015;-70
2022/08/24 02:40:00;;;;;;;0.52;0.52;;;;;;;16.72;88.28;93278.50;5112402;28;20084;-70
2022/08/24 02:42:26;;;;;;;0.65;0.65;;;;;;;16.82;87.63;93273.63;5112338;28;20035;-69
2022/08/24 02:44:52;;;;;;;0.20;0.20;;;;;;;16.83;87.65;93275.78;5112437;28;20446;-69
2022/08/24 02:47:17;;;;;;;0.57;0.55;;;;;;;16.72;88.19;93281.28;5112313;27;20030;-69
2022/08/24 02:49:43;;;;;;;0.50;0.50;;;;;;;16.62;89.10;93273.69;5112228;28;20069;-69
2022/08/24 02:52:09;;;;;;;0.32;0.32;;;;;;;16.66;89.01;93273.22;5111995;28;20031;-69
2022/08/24 02:54:34;;;;;;;1.25;1.20;;;;;;;16.66;89.12;93267.66;5111341;28;20040;-70
2022/08/24 02:57:00;;;;;;;0.57;0.57;;;;;;;16.70;88.65;93270.00;5111885;27;20084;-70
2022/08/24 02:59:25;;;;;;;0.20;0.20;;;;;;;16.61;89.54;93277.78;5111790;28;20015;-70
2022/08/24 03:01:51;;;;;;;0.20;0.20;;;;;;;16.58;90.07;93264.31;5112038;28;20031;-70
2022/08/24 03:04:17;;;;;;;0.32;0.32;;;;;;;16.74;89.51;93270.28;5112003;28;20453;-70
2022/08/24 03:06:43;;;;;;;1.45;0.70;;;;;;;16.77;89.27;93271.88;5111643;28;20106;-70
2022/08/24 03:09:09;;;;;;;0.95;0.95;;;;;;;16.80;88.99;93276.25;5111796;28;20098;-69
2022/08/24 03:11:34;;;;;;;0.68;0.68;;;;;;;16.73;89.29;93261.19;5111828;28;20027;-68
2022/08/24 03:14:00;;;;;;;0.13;0.13;;;;;;;16.68;90.12;93267.78;5111794;28;20024;-69
2022/08/24 03:16:30;;;;;;;0.50;0.50;;;;;;;16.77;89.43;93274.66;5111778;28;20455;-68
2022/08/24 03:18:56;;;;;;;0.85;0.85;;;;;;;16.70;89.92;93278.38;5106795;28;20026;-68
2022/08/24 03:21:21;;;;;;;1.13;1.08;;;;;;;16.73;89.78;93277.16;5111245;28;20515;-70
2022/08/24 03:23:46;;;;;;;0.22;0.22;;;;;;;16.76;89.74;93273.22;5111333;28;20077;-69
2022/08/24 03:26:13;;;;;;;0.40;0.40;;;;;;;16.70;90.47;93278.38;5111353;28;20031;-69
2022/08/24 03:28:38;;;;;;;0.47;0.47;;;;;;;16.52;90.51;93267.41;5111544;28;20035;-70
2022/08/24 03:31:04;;;;;;;0.73;0.73;;;;;;;16.68;90.10;93281.72;5111206;28;20016;-69
2022/08/24 03:33:30;;;;;;;2.15;1.75;;;;;;;16.64;90.69;93284.97;5111467;28;20024;-70
2022/08/24 03:35:55;;;;;;;0.20;0.20;;;;;;;16.63;89.92;93280.00;5111203;28;20547;-69
2022/08/24 03:38:21;;;;;;;0.70;0.70;;;;;;;16.73;88.65;93282.75;5092938;28;20027;-68
2022/08/24 03:40:46;;;;;;;0.15;0.15;;;;;;;16.82;87.99;93284.75;5091050;28;20093;-68
2022/08/24 03:43:44;;;;;;;0.35;0.35;;;;;;;16.75;88.11;93282.88;5089810;28;20093;-65
2022/08/24 03:46:01;;;;;;;0.10;0.10;;;;;;;16.72;89.09;93284.78;5090613;28;20069;-68
2022/08/24 03:48:28;;;;;;;0.73;0.73;;;;;;;16.72;90.02;93290.38;5089421;28;20025;-69
2022/08/24 03:50:54;;;;;;;0.43;0.43;;;;;;;16.70;90.41;93295.09;5090618;28;20050;-69
2022/08/24 03:53:20;;;;;;;0.20;0.20;;;;;;;16.73;90.38;93289.06;5090933;28;20484;-68
2022/08/24 03:55:45;;;;;;;0.43;0.43;;;;;;;16.76;89.50;93293.47;5090522;28;20101;-69
2022/08/24 03:58:11;;;;;;;2.55;0.60;;;;;;;16.79;89.02;93294.31;5090784;28;20023;-68
2022/08/24 04:00:38;;;;;;;0.50;0.50;;;;;;;16.84;89.73;93304.41;5090392;28;20408;-69
2022/08/24 04:03:05;;;;;;;0.30;0.30;;;;;;;16.87;90.15;93301.16;5090766;28;20024;-68
2022/08/24 04:05:31;;;;;;;0.20;0.20;;;;;;;16.90;90.13;93300.00;5090512;28;20124;-70
2022/08/24 04:07:56;;;;;;;0.55;0.55;;;;;;;17.05;89.58;93302.41;5090362;28;20500;-69
2022/08/24 04:10:22;;;;;;;1.17;1.13;;;;;;;17.07;88.40;93308.13;5090258;28;20024;-69
2022/08/24 04:12:47;;;;;;;0.52;0.52;;;;;;;17.01;89.21;93306.97;5090310;28;20025;-69
2022/08/24 04:15:13;;;;;;;0.20;0.20;;;;;;;17.15;87.92;93305.16;5090345;28;20043;-68
2022/08/24 04:17:39;;;;;;;0.28;0.28;;;;;;;17.13;88.19;93307.81;5095423;28;20047;-69
2022/08/24 04:20:05;;;;;;;1.05;1.05;;;;;;;16.98;88.68;93300.53;5109254;28;20048;-70
2022/08/24 04:22:32;;;;;;;0.10;0.10;;;;;;;17.00;89.55;93311.13;5110845;28;20043;-69
2022/08/24 04:24:58;;;;;;;0.40;0.40;;;;;;;17.13;88.99;93316.19;5110487;28;20031;-69
2022/08/24 04:27:24;;;;;;;0.50;0.50;;;;;;;17.02;89.32;93298.00;5109422;28;20107;-69
2022/08/24 04:29:50;;;;;;;0.90;0.77;;;;;;;17.20;89.45;93315.25;5110690;28;20015;-68
2022/08/24 04:32:15;;;;;;;0.90;0.90;;;;;;;17.31;89.53;93311.81;5110824;28;20096;-69
2022/08/24 04:34:42;;;;;;;0.85;0.85;;;;;;;17.35;89.24;93312.06;5091475;28;20093;-69
2022/08/24 04:37:08;;;;;;;0.40;0.40;;;;;;;17.40;89.62;93308.25;5090003;28;20028;-69
2022/08/24 04:39:33;;;;;;;0.10;0.10;;;;;;;17.39;89.78;93307.50;5090426;28;20016;-69
2022/08/24 04:41:59;;;;;;;3.53;0.70;;;;;;;17.42;89.52;93319.53;5089953;28;20093;-69
2022/08/24 04:44:24;;;;;;;1.40;1.30;;;;;;;17.45;89.39;93321.84;5090060;28;20027;-69
2022/08/24 04:46:50;;;;;;;1.25;0.50;;;;;;;17.53;89.34;93310.53;5089978;28;20023;-69
2022/08/24 04:49:15;;;;;;;0.20;0.20;;;;;;;17.61;89.17;93311.06;5089927;28;20020;-69
2022/08/24 04:51:41;;;;;;;0.10;0.10;;;;;;;17.72;88.80;93304.81;5089938;28;20031;-69
2022/08/24 04:54:07;;;;;;;0.10;0.10;;;;;;;17.79;88.33;93297.56;5090234;28;20076;-69
2022/08/24 04:56:33;;;;;;;0.35;0.35;;;;;;;17.86;88.19;93300.16;5089893;28;20051;-69
2022/08/24 04:58:59;;;;;;;0.55;0.55;;;;;;;17.97;87.57;93301.53;5089833;28;20539;-69
2022/08/24 05:01:26;;;;;;;0.30;0.30;;;;;;;18.03;87.12;93296.31;5089854;28;20024;-69
2022/08/24 05:03:53;;;;;;;0.40;0.40;;;;;;;18.10;85.70;93301.69;5089815;28;20493;-68
2022/08/24 05:06:22;;;;;;;1.95;1.40;;;;;;;18.20;85.78;93301.63;5089680;28;20551;-69
2022/08/24 05:08:48;;;;;;;0.10;0.10;;;;;;;18.13;84.88;93289.31;5089782;28;20051;-68
2022/08/24 05:11:17;;;;;;;0.63;0.63;;;;;;;18.26;84.78;93304.06;5089996;28;20020;-69
2022/08/24 05:13:43;;;;;;;0.13;0.13;;;;;;;18.36;84.82;93315.88;5089830;28;20024;-68
2022/08/24 05:16:14;;;;;;;1.65;0.75;;;;;;;18.49;84.65;93309.75;5090001;28;20028;-68
2022/08/24 05:18:41;;;;;;;0.63;0.30;;;;;;;18.53;84.86;93312.78;5106966;28;20026;-68
2022/08/24 05:21:11;;;;;;;0.40;0.40;;;;;;;18.55;85.61;93313.66;5113369;28;20040;-68
2022/08/24 05:23:38;;;;;;;0.75;0.75;;;;;;;18.68;85.01;93304.69;5114039;28;20024;-68
2022/08/24 05:26:12;;;;;;;0.40;0.40;;;;;;;18.64;82.44;93312.09;5113989;28;20462;-69
2022/08/24 05:28:38;;;;;;;2.10;2.00;;;;;;;18.71;81.72;93305.53;5113944;28;20451;-68
2022/08/24 05:31:08;;;;;;;0.10;0.10;;;;;;;18.78;81.70;93307.34;5093502;28;20020;-68
2022/08/24 05:33:34;;;;;;;0.20;0.20;;;;;;;18.86;83.23;93308.59;5093177;28;20316;-67
2022/08/24 05:36:00;;;;;;;0.10;0.10;;;;;;;18.88;82.69;93305.91;5093071;28;20020;-67
2022/08/24 05:38:26;;;;;;;0.30;0.30;;;;;;;18.99;80.03;93298.88;5093334;28;20024;-68
2022/08/24 05:40:51;;;;;;;0.20;0.20;;;;;;;19.02;78.68;93294.84;5093270;28;20085;-66
2022/08/24 05:43:17;;;;;;;0.10;0.10;;;;;;;19.12;77.73;93306.66;5093211;28;20082;-64
2022/08/24 05:45:43;;;;;;;3.50;3.20;;;;;;;19.16;78.84;93298.50;5092955;28;20489;-67
2022/08/24 05:48:08;;;;;;;5.95;5.35;;;;;;;19.15;79.05;93308.22;5092790;28;20043;-66
2022/08/24 05:50:34;;;;;;;1.23;0.55;;;;;;;19.24;75.93;93309.44;5093072;28;20021;-67
2022/08/24 05:52:59;;;;;;;0.32;0.32;;;;;;;19.35;77.95;93306.69;5092733;28;20101;-65
2022/08/24 05:55:25;;;;;;;0.17;0.17;;;;;;;19.38;77.56;93307.53;5092712;28;20024;-64
2022/08/24 05:57:51;;;;;;;0.10;0.10;;;;;;;19.42;77.71;93305.69;5092939;28;20024;-64
2022/08/24 06:00:17;;;;;;;0.98;0.40;;;;;;;19.38;73.76;93308.25;5092548;28;20016;-68
2022/08/24 06:02:43;;;;;;;0.40;0.40;;;;;;;19.45;76.85;93304.47;5091405;28;20050;-64
2022/08/24 06:05:08;;;;;;;0.13;0.13;;;;;;;19.59;75.46;93308.09;5092783;28;20024;-64
2022/08/24 06:07:34;;;;;;;0.20;0.20;;;;;;;19.73;76.98;93302.56;5092764;28;20474;-64
2022/08/24 06:09:59;;;;;;;0.13;0.13;;;;;;;19.78;75.38;93315.47;5092343;28;20447;-64
2022/08/24 06:12:25;;;;;;;0.10;0.10;;;;;;;19.94;74.31;93307.28;5092684;28;20027;-64
2022/08/24 06:14:50;;;;;;;0.40;0.40;;;;;;;20.06;74.59;93311.50;5092646;28;20048;-63
2022/08/24 06:17:16;;;;;;;0.10;0.10;;;;;;;20.19;73.35;93310.09;5094970;28;20743;-63
2022/08/24 06:19:42;;;;;;;0.20;0.20;;;;;;;20.19;73.91;93299.63;5112026;27;20096;-63
2022/08/24 06:22:08;;;;;;;0.90;0.90;;;;;;;20.27;70.72;93310.59;5112555;28;20042;-62
2022/08/24 06:27:24;;;;;;;1.75;1.67;;;;;;;20.25;70.12;93313.28;5092658;28;20039;-63
2022/08/24 06:29:53;;;;;;;4.38;3.35;;;;;;;20.29;71.07;93305.09;5092283;28;20028;-63
2022/08/24 06:32:19;;;;;;;3.75;1.88;;;;;;;20.32;70.87;93296.19;5091918;28;20020;-63
2022/08/24 06:34:45;;;;;;;2.20;2.08;;;;;;;20.28;70.85;93306.44;5091940;28;20031;-62
2022/08/24 06:37:11;;;;;;;0.70;0.70;;;;;;;20.30;70.78;93292.53;5092156;28;20115;-63
2022/08/24 06:39:36;;;;;;;0.20;0.20;;;;;;;20.49;70.42;93303.41;5092198;28;20020;-63
2022/08/24 06:42:02;;;;;;;0.35;0.35;;;;;;;20.66;68.88;93293.81;5092141;28;20081;-63
2022/08/24 06:44:27;;;;;;;0.50;0.50;;;;;;;20.76;69.26;93291.53;5091793;28;20032;-63
2022/08/24 06:46:53;;;;;;;0.20;0.20;;;;;;;20.85;68.81;93305.41;5091713;28;20016;-62
2022/08/24 06:49:18;;;;;;;0.20;0.20;;;;;;;21.08;67.71;93305.25;5091519;28;20020;-63
2022/08/24 06:51:44;;;;;;;0.65;0.65;;;;;;;21.24;67.96;93304.66;5091953;28;20046;-62
2022/08/24 06:54:10;;;;;;;0.70;0.70;;;;;;;21.45;67.33;93301.53;5091890;28;20528;-63
2022/08/24 06:56:38;;;;;;;1.17;1.17;;;;;;;21.72;65.75;93313.47;5091867;28;20442;-61
2022/08/24 06:59:04;;;;;;;0.20;0.20;;;;;;;21.96;62.88;93314.00;5091503;28;20016;-63
2022/08/24 07:01:30;;;;;;;0.10;0.10;;;;;;;22.36;62.48;93316.00;5091372;28;20039;-63
2022/08/24 07:03:55;;;;;;;1.88;1.30;;;;;;;22.68;62.64;93308.38;5091492;28;20020;-62
2022/08/24 07:06:22;;;;;;;0.55;0.55;;;;;;;22.93;63.05;93310.97;5091332;28;20020;-62
2022/08/24 07:08:48;;;;;;;0.40;0.40;;;;;;;23.42;62.37;93293.47;5091322;28;20175;-63
2022/08/24 07:11:18;;;;;;;0.38;0.38;;;;;;;23.56;59.47;93300.47;5091756;28;20024;-61
2022/08/24 07:13:46;;;;;;;0.05;0.05;;;;;;;23.41;58.14;93292.03;5091299;28;20034;-65
2022/08/24 07:16:12;;;;;;;1.27;1.20;;;;;;;23.66;58.32;93314.25;5091509;28;20412;-66
2022/08/24 07:18:37;;;;;;;0.20;0.20;;;;;;;23.85;57.47;93293.94;5104871;28;20073;-59
2022/08/24 07:21:04;;;;;;;0.10;0.10;;;;;;;24.19;55.48;93303.84;5111439;28;20052;-62
2022/08/24 07:23:29;;;;;;;0.45;0.45;;;;;;;24.53;56.47;93304.53;5091923;28;20030;-60
2022/08/24 07:25:55;;;;;;;0.50;0.50;;;;;;;24.98;55.25;93304.94;5091329;28;20024;-60
2022/08/24 07:28:20;;;;;;;0.57;0.57;;;;;;;25.61;52.58;93310.09;5091248;28;20401;-60
2022/08/24 07:30:46;;;;;;;0.75;0.55;;;;;;;26.33;50.29;93315.50;5091143;28;20027;-63
2022/08/24 07:33:12;;;;;;;0.63;0.45;;;;;;;26.69;50.75;93288.38;5090925;28;20081;-60
2022/08/24 07:35:37;;;;;;;0.47;0.47;;;;;;;27.28;48.44;93301.53;5091150;28;20131;-60
2022/08/24 07:38:05;;;;;;;0.10;0.10;;;;;;;27.74;46.47;93305.72;5091101;28;20453;-61
2022/08/24 07:40:32;;;;;;;0.10;0.10;;;;;;;28.12;44.67;93306.81;5090399;28;20465;-61
2022/08/24 07:42:57;;;;;;;1.45;1.23;;;;;;;28.31;43.39;93302.31;5090693;28;20039;-61
2022/08/24 07:45:25;;;;;;;0.00;0.00;;;;;;;28.62;42.01;93296.03;5091043;28;20019;-62
2022/08/24 07:47:51;;;;;;;0.17;0.17;;;;;;;28.87;43.10;93303.72;5089390;28;20035;-62
2022/08/24 07:50:17;;;;;;;0.00;0.00;;;;;;;29.37;42.68;93300.63;5090628;28;20016;-61
2022/08/24 07:52:43;;;;;;;0.10;0.10;;;;;;;29.39;43.06;93298.53;5090853;28;20023;-63
2022/08/24 07:55:10;;;;;;;0.00;0.00;;;;;;;29.73;42.85;93298.56;5090496;28;20116;-61
2022/08/24 07:57:38;;;;;;;0.10;0.10;;;;;;;29.86;42.25;93301.00;5090850;28;20024;-62
2022/08/24 08:00:08;;;;;;;0.20;0.20;;;;;;;30.31;41.22;93302.56;5090781;28;20020;-62
2022/08/24 08:02:34;;;;;;;0.20;0.20;;;;;;;30.85;40.78;93302.78;5090692;28;20016;-62
2022/08/24 08:04:59;;;;;;;0.30;0.30;;;;;;;31.31;39.11;93299.94;5089122;28;20607;-63
2022/08/24 08:07:25;;;;;;;0.20;0.20;;;;;;;31.10;40.09;93301.78;5090360;28;20398;-62
2022/08/24 08:09:51;;;;;;;0.00;0.00;;;;;;;31.39;38.83;93303.63;5090572;28;20024;-62
2022/08/24 08:12:18;;;;;;;0.22;0.22;;;;;;;31.54;38.83;93303.84;5090686;28;20032;-61
2022/08/24 08:14:44;;;;;;;2.65;2.28;;;;;;;31.63;36.63;93305.41;5090263;28;20500;-62
2022/08/24 08:17:10;;;;;;;2.92;2.50;;;;;;;31.85;37.77;93309.28;5090867;28;20635;-61
2022/08/24 08:19:36;;;;;;;2.60;1.80;;;;;;;31.75;36.52;93305.56;5091618;28;20548;-60
2022/08/24 08:24:45;;;;;;;2.80;2.50;;;;;;;29.81;38.77;93302.31;5090330;28;20566;-59
2022/08/24 08:27:11;;;;;;;7.63;2.40;;;;;;;28.89;41.22;93305.91;5090139;28;20020;-60
2022/08/24 08:29:39;;;;;;;4.53;3.08;;;;;;;28.19;42.24;93305.56;5090088;28;20081;-61
2022/08/24 08:32:06;;;;;;;5.90;2.97;;;;;;;27.44;44.73;93305.56;5090456;28;20459;-64
2022/08/24 08:34:31;;;;;;;4.80;2.35;;;;;;;26.86;46.09;93307.34;5090366;28;20027;-60
2022/08/24 08:36:58;;;;;;;5.57;2.88;;;;;;;26.81;45.30;93302.94;5090099;28;20493;-66
2022/08/24 08:39:24;;;;;;;6.88;3.53;;;;;;;26.57;47.98;93309.91;5090694;28;20028;-63
2022/08/24 08:42:13;;;;;;;3.97;2.88;;;;;;;26.69;47.83;93308.19;5090323;28;20012;-60
2022/08/24 08:45:14;;;;;;;3.65;2.92;;;;;;;26.78;49.32;93318.44;5090031;28;20039;-60
2022/08/24 08:48:09;;;;;;;4.10;3.45;;;;;;;26.62;48.01;93317.13;5088791;28;20042;-60
2022/08/24 08:51:04;;;;;;;5.13;3.13;;;;;;;26.52;48.36;93311.88;5085802;28;20086;-64
2022/08/24 08:53:55;;;;;;;4.95;3.33;;;;;;;26.82;47.46;93318.56;5092576;28;20108;-60
2022/08/24 08:56:54;;;;;;;6.35;3.13;;;;;;;26.65;48.46;93321.50;5093655;28;20020;-60
2022/08/24 08:59:46;;;;;;;3.10;2.80;;;;;;;26.84;47.37;93332.78;5094116;28;20020;-61
2022/08/24 09:02:47;;;;;;;3.33;2.63;;;;;;;26.69;47.43;93321.63;5093786;28;20027;-67
2022/08/24 09:05:46;;;;;;;4.50;3.28;;;;;;;26.81;47.42;93336.91;5093702;28;20558;-66
2022/08/24 09:08:17;;;;;;;6.45;3.35;;;;;;;26.89;47.22;93336.47;5092729;28;20031;-61
2022/08/24 09:10:53;;;;;;;5.10;3.40;;;;;;;26.77;47.28;93336.78;5093509;28;20520;-60
2022/08/24 09:13:57;;;;;;;6.00;3.30;;;;;;;26.13;49.00;93334.63;5093512;28;20028;-65
2022/08/24 09:16:48;;;;;;;9.38;3.45;;;;;;;25.84;50.05;93341.34;5092340;28;20088;-65
2022/08/24 09:19:27;;;;;;;4.93;3.63;;;;;;;25.45;52.37;93347.72;5086255;28;20078;-60
2022/08/24 09:22:12;;;;;;;4.70;3.55;;;;;;;25.24;51.96;93341.94;5093753;28;20038;-61
2022/08/24 09:24:53;;;;;;;5.40;3.72;;;;;;;25.18;52.44;93338.88;5093672;28;20416;-67
2022/08/24 09:27:41;;;;;;;5.25;3.75;;;;;;;25.12;54.10;93342.19;5093346;28;20059;-58
2022/08/24 09:30:17;;;;;;;4.00;3.10;;;;;;;25.06;53.99;93335.59;5093262;28;20077;-62
2022/08/24 09:32:54;;;;;;;10.43;4.25;;;;;;;25.19;54.22;93331.84;5093092;28;20099;-59
2022/08/24 09:36:01;;;;;;;6.00;3.28;;;;;;;25.80;52.09;93341.22;5093083;28;20107;-61
2022/08/24 09:38:55;;;;;;;5.20;2.92;;;;;;;26.19;51.60;93344.03;5093370;28;20111;-66
2022/08/24 09:41:59;;;;;;;3.45;3.15;;;;;;;26.36;50.84;93345.31;5091775;28;20107;-66
2022/08/24 09:44:33;;;;;;;3.35;2.85;;;;;;;26.28;49.96;93336.56;5076689;28;20089;-65
2022/08/24 09:47:22;;;;;;;3.35;2.92;;;;;;;26.48;49.80;93330.84;5092083;28;20067;-61
2022/08/24 09:50:06;;;;;;;3.90;2.80;;;;;;;26.94;48.69;93323.88;5091853;28;20408;-64
2022/08/24 09:52:41;;;;;;;3.50;3.20;;;;;;;27.03;49.70;93329.13;5093050;28;20024;-59
2022/08/24 09:55:19;;;;;;;5.10;4.10;;;;;;;27.24;49.15;93318.41;5091606;28;20059;-58
2022/08/24 09:58:09;;;;;;;5.78;3.40;;;;;;;28.22;47.94;93312.72;5093075;28;20027;-61
2022/08/24 10:00:49;;;;;;;3.45;3.15;;;;;;;29.46;42.70;93314.34;5092892;28;20039;-67
2022/08/24 10:03:33;;;;;;;5.85;3.03;;;;;;;29.96;40.66;93317.53;5091118;28;20024;-65
2022/08/24 10:06:10;;;;;;;3.85;3.20;;;;;;;30.07;41.77;93322.03;5092476;28;20035;-61
2022/08/24 10:08:48;;;;;;;7.40;3.00;;;;;;;30.22;41.89;93305.91;5092493;28;20028;-60
2022/08/24 10:11:26;;;;;;;4.77;3.37;;;;;;;31.10;39.49;93321.75;5103277;28;20028;-60
2022/08/24 10:13:51;;;;;;;3.72;3.03;;;;;;;32.21;36.04;93320.41;5113041;28;20456;-63
2022/08/24 10:16:32;;;;;;;3.67;2.97;;;;;;;32.05;38.71;93314.53;5112819;28;20108;-60
2022/08/24 10:19:06;;;;;;;9.23;3.97;;;;;;;32.48;36.53;93318.59;5107926;27;20024;-61
2022/08/24 10:21:43;;;;;;;8.52;3.00;;;;;;;32.85;36.42;93314.66;5112883;28;20116;-59
2022/08/24 10:24:27;;;;;;;5.55;3.13;;;;;;;32.84;36.27;93311.06;5111386;28;20119;-59
2022/08/24 10:27:16;;;;;;;3.80;2.70;;;;;;;33.87;35.95;93294.63;5111345;28;20024;-59
2022/08/24 10:29:57;;;;;;;3.97;2.70;;;;;;;34.89;32.17;93294.19;5112582;28;20039;-60
2022/08/24 10:32:51;;;;;;;3.05;2.75;;;;;;;35.29;32.20;93293.50;5112342;28;20106;-59
2022/08/24 10:35:21;;;;;;;8.10;3.20;;;;;;;35.56;31.12;93292.03;5111166;28;20488;-59
2022/08/24 10:41:01;;;;;;;5.45;3.80;;;;;;;34.92;31.20;93301.38;5112332;28;20085;-61
2022/08/24 10:43:33;;;;;;;4.18;2.90;;;;;;;34.56;30.77;93301.34;5112243;28;20047;-64
2022/08/24 10:46:36;;;;;;;6.03;4.45;;;;;;;33.33;33.14;93300.72;5112230;28;20112;-67
2022/08/24 10:49:34;;;;;;;6.00;4.55;;;;;;;31.93;36.00;93297.94;5112378;28;20032;-59
2022/08/24 10:52:05;;;;;;;6.30;4.45;;;;;;;31.28;38.69;93304.91;5112069;28;20120;-58
2022/08/24 10:54:35;;;;;;;4.25;3.55;;;;;;;31.43;37.18;93308.69;5111917;27;20031;-61
2022/08/24 10:57:06;;;;;;;5.72;3.72;;;;;;;31.70;37.30;93315.50;5111936;28;20254;-67
2022/08/24 11:00:19;;;;;;;4.00;3.10;;;;;;;31.98;36.63;93318.72;5111846;28;20047;-58
2022/08/24 11:02:45;;;;;;;8.23;6.22;;;;;;;31.92;39.00;93312.91;5110217;28;20524;-59
2022/08/24 11:05:26;;;;;;;4.15;3.53;;;;;;;31.28;38.89;93312.72;5112034;28;20107;-61
2022/08/24 11:08:03;;;;;;;5.72;3.83;;;;;;;31.43;37.99;93311.56;5097662;28;20055;-64
2022/08/24 11:10:33;;;;;;;4.65;3.75;;;;;;;31.54;38.54;93309.56;5091533;28;20050;-63
2022/08/24 11:13:24;;;;;;;3.80;3.40;;;;;;;31.50;36.24;93313.09;5091550;28;20106;-65
2022/08/24 11:15:53;;;;;;;6.90;3.63;;;;;;;31.56;36.10;93301.00;5090858;28;20024;-62
2022/08/24 11:18:19;;;;;;;5.28;3.60;;;;;;;31.38;37.82;93302.19;5102256;28;20032;-63
2022/08/24 11:20:49;;;;;;;5.72;3.60;;;;;;;31.68;36.19;93304.78;5111316;28;20035;-59
2022/08/24 11:23:34;;;;;;;8.60;3.88;;;;;;;31.06;36.14;93298.13;5111827;28;20028;-59
2022/08/24 11:26:09;;;;;;;4.00;3.60;;;;;;;30.47;37.56;93296.44;5111373;28;20020;-60
2022/08/24 11:28:46;;;;;;;5.68;4.05;;;;;;;29.93;39.83;93296.16;5111658;28;20026;-59
2022/08/24 11:31:21;;;;;;;7.47;5.28;;;;;;;30.38;43.53;93304.13;5110057;28;20030;-58
2022/08/24 11:33:51;;;;;;;9.82;4.38;;;;;;;30.57;41.56;93296.63;5110135;28;20023;-58
2022/08/24 11:36:22;;;;;;;4.25;3.85;;;;;;;30.76;38.78;93291.94;5111802;28;20023;-65
2022/08/24 11:38:48;;;;;;;4.20;3.67;;;;;;;30.23;40.43;93288.16;5109886;28;20027;-59
2022/08/24 11:41:28;;;;;;;6.97;4.10;;;;;;;29.93;40.90;93285.44;5109860;28;20028;-65
2022/08/24 11:44:32;;;;;;;10.50;4.53;;;;;;;29.30;43.20;93259.97;5110194;28;20026;-58
2022/08/24 11:47:17;;;;;;;5.15;4.13;;;;;;;29.05;43.14;93280.69;5111412;28;20023;-60
2022/08/24 11:50:07;;;;;;;8.70;4.07;;;;;;;28.52;45.42;93290.78;5109933;28;20385;-59
2022/08/24 11:52:54;;;;;;;9.73;4.00;;;;;;;27.98;47.78;93289.38;5111242;28;20024;-58
2022/08/24 11:55:35;;;;;;;8.80;4.78;;;;;;;27.64;47.96;93291.25;5109711;28;20027;-58
2022/08/24 11:58:23;;;;;;;7.60;5.93;;;;;;;27.51;48.32;93286.63;5110905;28;20027;-58
2022/08/24 12:00:59;;;;;;;5.15;4.15;;;;;;;27.34;49.03;93290.34;5109992;28;20080;-60
2022/08/24 12:03:52;;;;;;;12.32;4.60;;;;;;;27.03;50.20;93288.72;5101574;28;20467;-60